PWSweather.com
Personal Weather Stations
Station Observations
KMAGLOU
Annisquam, Gloucester, MA 01930

AnnisquamGloucester, MA 01930

Lat: 42.651915, Lon: -70.679284

Elevation: 10

Station Type: Davis Vantage Pro2

https://annisquam-yacht-club-weather.keneli.org/

Latest ConditionsUpdated 5:00:00 PM EDT Friday, Oct 18, 2019
Currently Today's Max Today's Min Today's Average
Temperature 55.3°F12.9°C 57.4°F14.1°C 47.8°F8.8°C 52.1°F11.2°C
Dew Point 41.7°F5.4°C 44.1°F6.7°C 40.4°F4.7°C 42.1°F5.6°C
Winds 22.0 mph NW35.4 kmh NW 25.0 mph -40.2 kmh - - 15.2 mph 24.5 kmh
Wind Gusts 31.0 mph49.9 kmh 36.0 mph57.9 kmh - -
Humidity 60% 79% 56% 69%
Pressure 29.77 in1008.1 mb 29.77 in1008.1 mb 29.38 in994.9 mb -
Hour Temp Dew Point Humidity Winds Wind Gusts Pressure Precip Precip Rate Daily Precip Total
05:00 PM 55.3°F12.9°C 41.7°F5.4°C 60% 22.0 mph NW35.4 kmh NW 31.0 mph49.9 kmh 29.77 in1008.1 mb 0.00 in0.0 mm 0.00 in0.0 mm 0.00 in0.0 mm
04:55 PM 55.4°F13.0°C 42.6°F5.9°C 62% 18.0 mph NW29.0 kmh NW 29.0 mph46.7 kmh 29.77 in1008.1 mb 0.00 in0.0 mm 0.00 in0.0 mm 0.00 in0.0 mm
04:50 PM 55.5°F13.1°C 41.8°F5.4°C 60% 17.0 mph NW27.4 kmh NW 27.0 mph43.5 kmh 29.77 in1008.1 mb 0.00 in0.0 mm 0.00 in0.0 mm 0.00 in0.0 mm
04:45 PM 55.7°F13.2°C 41.6°F5.3°C 59% 21.0 mph NW33.8 kmh NW 31.0 mph49.9 kmh 29.77 in1008.1 mb 0.00 in0.0 mm 0.00 in0.0 mm 0.00 in0.0 mm
04:40 PM 56.1°F13.4°C 41.5°F5.3°C 58% 18.0 mph NW29.0 kmh NW 29.0 mph46.7 kmh 29.77 in1008.1 mb 0.00 in0.0 mm 0.00 in0.0 mm 0.00 in0.0 mm
04:35 PM 56.3°F13.5°C 42.6°F5.9°C 60% 21.0 mph NW33.8 kmh NW 33.0 mph53.1 kmh 29.76 in1007.8 mb 0.00 in0.0 mm 0.00 in0.0 mm 0.00 in0.0 mm
04:30 PM 56.4°F13.6°C 41.4°F5.2°C 57% 24.0 mph NW38.6 kmh NW 36.0 mph57.9 kmh 29.76 in1007.8 mb 0.00 in0.0 mm 0.00 in0.0 mm 0.00 in0.0 mm
04:25 PM 56.6°F13.7°C 42.4°F5.8°C 59% 25.0 mph NW40.2 kmh NW 31.0 mph49.9 kmh 29.76 in1007.8 mb 0.00 in0.0 mm 0.00 in0.0 mm 0.00 in0.0 mm
04:20 PM 56.7°F13.7°C 42.1°F5.6°C 58% 24.0 mph NW38.6 kmh NW 31.0 mph49.9 kmh 29.75 in1007.5 mb 0.00 in0.0 mm 0.00 in0.0 mm 0.00 in0.0 mm
04:15 PM 56.8°F13.8°C 42.6°F5.9°C 59% 24.0 mph NW38.6 kmh NW 32.0 mph51.5 kmh 29.75 in1007.5 mb 0.00 in0.0 mm 0.00 in0.0 mm 0.00 in0.0 mm
04:10 PM 56.9°F13.8°C 42.3°F5.7°C 58% 23.0 mph WNW37.0 kmh WNW 32.0 mph51.5 kmh 29.75 in1007.5 mb 0.00 in0.0 mm 0.00 in0.0 mm 0.00 in0.0 mm
04:05 PM 56.8°F13.8°C 43.1°F6.2°C 60% 25.0 mph NW40.2 kmh NW 32.0 mph51.5 kmh 29.74 in1007.1 mb 0.00 in0.0 mm 0.00 in0.0 mm 0.00 in0.0 mm
04:00 PM 56.8°F13.8°C 41.7°F5.4°C 57% 22.0 mph NW35.4 kmh NW 30.0 mph48.3 kmh 29.74 in1007.1 mb 0.00 in0.0 mm 0.00 in0.0 mm 0.00 in0.0 mm
03:55 PM 57.1°F13.9°C 42.5°F5.8°C 58% 21.0 mph NW33.8 kmh NW 28.0 mph45.1 kmh 29.74 in1007.1 mb 0.00 in0.0 mm 0.00 in0.0 mm 0.00 in0.0 mm
03:50 PM 57.3°F14.1°C 43.5°F6.4°C 60% 20.0 mph NW32.2 kmh NW 28.0 mph45.1 kmh 29.74 in1007.1 mb 0.00 in0.0 mm 0.00 in0.0 mm 0.00 in0.0 mm
03:45 PM 57.2°F14.0°C 43.4°F6.3°C 60% 19.0 mph NW30.6 kmh NW 26.0 mph41.8 kmh 29.73 in1006.8 mb 0.00 in0.0 mm 0.00 in0.0 mm 0.00 in0.0 mm
03:40 PM 57.2°F14.0°C 43.4°F6.3°C 60% 18.0 mph WNW29.0 kmh WNW 29.0 mph46.7 kmh 29.73 in1006.8 mb 0.00 in0.0 mm 0.00 in0.0 mm 0.00 in0.0 mm
03:35 PM 57.1°F13.9°C 42.9°F6.1°C 59% 19.0 mph NW30.6 kmh NW 26.0 mph41.8 kmh 29.73 in1006.8 mb 0.00 in0.0 mm 0.00 in0.0 mm 0.00 in0.0 mm
03:30 PM 56.8°F13.8°C 42.6°F5.9°C 59% 21.0 mph NW33.8 kmh NW 30.0 mph48.3 kmh 29.73 in1006.8 mb 0.00 in0.0 mm 0.00 in0.0 mm 0.00 in0.0 mm
03:25 PM 56.9°F13.8°C 43.2°F6.2°C 60% 20.0 mph NW32.2 kmh NW 27.0 mph43.5 kmh 29.73 in1006.8 mb 0.00 in0.0 mm 0.00 in0.0 mm 0.00 in0.0 mm
03:20 PM 57.3°F14.1°C 43.1°F6.2°C 59% 21.0 mph NW33.8 kmh NW 27.0 mph43.5 kmh 29.72 in1006.4 mb 0.00 in0.0 mm 0.00 in0.0 mm 0.00 in0.0 mm
03:15 PM 57.1°F13.9°C 42.9°F6.1°C 59% 18.0 mph NW29.0 kmh NW 28.0 mph45.1 kmh 29.72 in1006.4 mb 0.00 in0.0 mm 0.00 in0.0 mm 0.00 in0.0 mm
03:10 PM 57.3°F14.1°C 44.0°F6.7°C 61% 17.0 mph NW27.4 kmh NW 24.0 mph38.6 kmh 29.72 in1006.4 mb 0.00 in0.0 mm 0.00 in0.0 mm 0.00 in0.0 mm
03:05 PM 57.3°F14.1°C 43.5°F6.4°C 60% 17.0 mph WNW27.4 kmh WNW 26.0 mph41.8 kmh 29.72 in1006.4 mb 0.00 in0.0 mm 0.00 in0.0 mm 0.00 in0.0 mm
03:00 PM 57.0°F13.9°C 43.3°F6.3°C 60% 13.0 mph WNW20.9 kmh WNW 25.0 mph40.2 kmh 29.72 in1006.4 mb 0.00 in0.0 mm 0.00 in0.0 mm 0.00 in0.0 mm
02:55 PM 57.0°F13.9°C 43.3°F6.3°C 60% 19.0 mph NW30.6 kmh NW 28.0 mph45.1 kmh 29.71 in1006.1 mb 0.00 in0.0 mm 0.00 in0.0 mm 0.00 in0.0 mm
02:50 PM 57.4°F14.1°C 41.8°F5.4°C 56% 19.0 mph NW30.6 kmh NW 27.0 mph43.5 kmh 29.71 in1006.1 mb 0.00 in0.0 mm 0.00 in0.0 mm 0.00 in0.0 mm
02:45 PM 57.4°F14.1°C 41.8°F5.4°C 56% 18.0 mph NW29.0 kmh NW 25.0 mph40.2 kmh 29.71 in1006.1 mb 0.00 in0.0 mm 0.00 in0.0 mm 0.00 in0.0 mm
02:40 PM 57.1°F13.9°C 42.5°F5.8°C 58% 21.0 mph WNW33.8 kmh WNW 31.0 mph49.9 kmh 29.71 in1006.1 mb 0.00 in0.0 mm 0.00 in0.0 mm 0.00 in0.0 mm
02:35 PM 57.0°F13.9°C 41.5°F5.3°C 56% 22.0 mph WNW35.4 kmh WNW 30.0 mph48.3 kmh 29.70 in1005.8 mb 0.00 in0.0 mm 0.00 in0.0 mm 0.00 in0.0 mm
02:30 PM 56.9°F13.8°C 43.6°F6.4°C 61% 16.0 mph NW25.7 kmh NW 28.0 mph45.1 kmh 29.71 in1006.1 mb 0.00 in0.0 mm 0.00 in0.0 mm 0.00 in0.0 mm
02:25 PM 56.7°F13.7°C 41.6°F5.3°C 57% 17.0 mph NW27.4 kmh NW 28.0 mph45.1 kmh 29.70 in1005.8 mb 0.00 in0.0 mm 0.00 in0.0 mm 0.00 in0.0 mm
02:20 PM 56.6°F13.7°C 42.4°F5.8°C 59% 19.0 mph NW30.6 kmh NW 28.0 mph45.1 kmh 29.70 in1005.8 mb 0.00 in0.0 mm 0.00 in0.0 mm 0.00 in0.0 mm
02:15 PM 56.5°F13.6°C 42.3°F5.7°C 59% 17.0 mph NW27.4 kmh NW 27.0 mph43.5 kmh 29.70 in1005.8 mb 0.00 in0.0 mm 0.00 in0.0 mm 0.00 in0.0 mm
02:10 PM 56.4°F13.6°C 41.4°F5.2°C 57% 20.0 mph NW32.2 kmh NW 31.0 mph49.9 kmh 29.70 in1005.8 mb 0.00 in0.0 mm 0.00 in0.0 mm 0.00 in0.0 mm
02:05 PM 56.4°F13.6°C 42.3°F5.7°C 59% 20.0 mph NW32.2 kmh NW 29.0 mph46.7 kmh 29.70 in1005.8 mb 0.00 in0.0 mm 0.00 in0.0 mm 0.00 in0.0 mm
02:00 PM 56.5°F13.6°C 41.5°F5.3°C 57% 23.0 mph NW37.0 kmh NW 31.0 mph49.9 kmh 29.70 in1005.8 mb 0.00 in0.0 mm 0.00 in0.0 mm 0.00 in0.0 mm
01:55 PM 56.6°F13.7°C 43.7°F6.5°C 62% 20.0 mph NW32.2 kmh NW 29.0 mph46.7 kmh 29.69 in1005.4 mb 0.00 in0.0 mm 0.00 in0.0 mm 0.00 in0.0 mm
01:50 PM 56.1°F13.4°C 44.1°F6.7°C 64% 20.0 mph NW32.2 kmh NW 29.0 mph46.7 kmh 29.70 in1005.8 mb 0.00 in0.0 mm 0.00 in0.0 mm 0.00 in0.0 mm
01:45 PM 56.0°F13.3°C 42.7°F5.9°C 61% 19.0 mph NW30.6 kmh NW 30.0 mph48.3 kmh 29.70 in1005.8 mb 0.00 in0.0 mm 0.00 in0.0 mm 0.00 in0.0 mm
01:40 PM 56.0°F13.3°C 42.7°F5.9°C 61% 19.0 mph NW30.6 kmh NW 30.0 mph48.3 kmh 29.70 in1005.8 mb 0.00 in0.0 mm 0.00 in0.0 mm 0.00 in0.0 mm
01:35 PM 56.0°F13.3°C 42.7°F5.9°C 61% 21.0 mph NW33.8 kmh NW 30.0 mph48.3 kmh 29.70 in1005.8 mb 0.00 in0.0 mm 0.00 in0.0 mm 0.00 in0.0 mm
01:30 PM 56.1°F13.4°C 42.4°F5.8°C 60% 21.0 mph NW33.8 kmh NW 32.0 mph51.5 kmh 29.70 in1005.8 mb 0.00 in0.0 mm 0.00 in0.0 mm 0.00 in0.0 mm
01:25 PM 56.1°F13.4°C 42.0°F5.6°C 59% 23.0 mph NW37.0 kmh NW 34.0 mph54.7 kmh 29.70 in1005.8 mb 0.00 in0.0 mm 0.00 in0.0 mm 0.00 in0.0 mm
01:20 PM 55.8°F13.2°C 42.1°F5.6°C 60% 13.0 mph NW20.9 kmh NW 25.0 mph40.2 kmh 29.70 in1005.8 mb 0.00 in0.0 mm 0.00 in0.0 mm 0.00 in0.0 mm
01:15 PM 55.8°F13.2°C 43.0°F6.1°C 62% 18.0 mph NW29.0 kmh NW 28.0 mph45.1 kmh 29.70 in1005.8 mb 0.00 in0.0 mm 0.00 in0.0 mm 0.00 in0.0 mm
01:10 PM 55.8°F13.2°C 42.6°F5.9°C 61% 19.0 mph NW30.6 kmh NW 31.0 mph49.9 kmh 29.70 in1005.8 mb 0.00 in0.0 mm 0.00 in0.0 mm 0.00 in0.0 mm
01:05 PM 55.6°F13.1°C 44.0°F6.7°C 65% 18.0 mph NW29.0 kmh NW 26.0 mph41.8 kmh 29.70 in1005.8 mb 0.00 in0.0 mm 0.00 in0.0 mm 0.00 in0.0 mm
01:00 PM 55.5°F13.1°C 42.7°F5.9°C 62% 22.0 mph NW35.4 kmh NW 31.0 mph49.9 kmh 29.70 in1005.8 mb 0.00 in0.0 mm 0.00 in0.0 mm 0.00 in0.0 mm
12:55 PM 55.5°F13.1°C 42.7°F5.9°C 62% 20.0 mph NW32.2 kmh NW 32.0 mph51.5 kmh 29.70 in1005.8 mb 0.00 in0.0 mm 0.00 in0.0 mm 0.00 in0.0 mm
12:50 PM 55.3°F12.9°C 42.1°F5.6°C 61% 20.0 mph NW32.2 kmh NW 30.0 mph48.3 kmh 29.70 in1005.8 mb 0.00 in0.0 mm 0.00 in0.0 mm 0.00 in0.0 mm
12:45 PM 55.2°F12.9°C 42.8°F6.0°C 63% 22.0 mph NW35.4 kmh NW 36.0 mph57.9 kmh 29.69 in1005.4 mb 0.00 in0.0 mm 0.00 in0.0 mm 0.00 in0.0 mm
12:40 PM 55.3°F12.9°C 42.5°F5.8°C 62% 24.0 mph NW38.6 kmh NW 36.0 mph57.9 kmh 29.70 in1005.8 mb 0.00 in0.0 mm 0.00 in0.0 mm 0.00 in0.0 mm
12:35 PM 55.3°F12.9°C 42.9°F6.1°C 63% 22.0 mph NW35.4 kmh NW 29.0 mph46.7 kmh 29.69 in1005.4 mb 0.00 in0.0 mm 0.00 in0.0 mm 0.00 in0.0 mm
12:30 PM 55.3°F12.9°C 42.5°F5.8°C 62% 23.0 mph NW37.0 kmh NW 30.0 mph48.3 kmh 29.69 in1005.4 mb 0.00 in0.0 mm 0.00 in0.0 mm 0.00 in0.0 mm
12:25 PM 55.2°F12.9°C 42.0°F5.6°C 61% 20.0 mph NW32.2 kmh NW 30.0 mph48.3 kmh 29.70 in1005.8 mb 0.00 in0.0 mm 0.00 in0.0 mm 0.00 in0.0 mm
12:20 PM 55.0°F12.8°C 43.0°F6.1°C 64% 23.0 mph NW37.0 kmh NW 34.0 mph54.7 kmh 29.69 in1005.4 mb 0.00 in0.0 mm 0.00 in0.0 mm 0.00 in0.0 mm
12:15 PM 54.9°F12.7°C 43.8°F6.6°C 66% 20.0 mph NW32.2 kmh NW 28.0 mph45.1 kmh 29.70 in1005.8 mb 0.00 in0.0 mm 0.00 in0.0 mm 0.00 in0.0 mm
12:10 PM 54.8°F12.7°C 42.0°F5.6°C 62% 23.0 mph NW37.0 kmh NW 30.0 mph48.3 kmh 29.70 in1005.8 mb 0.00 in0.0 mm 0.00 in0.0 mm 0.00 in0.0 mm
12:05 PM 55.0°F12.8°C 42.6°F5.9°C 63% 20.0 mph NW32.2 kmh NW 30.0 mph48.3 kmh 29.70 in1005.8 mb 0.00 in0.0 mm 0.00 in0.0 mm 0.00 in0.0 mm
12:00 PM 54.9°F12.7°C 42.5°F5.8°C 63% 19.0 mph NW30.6 kmh NW 28.0 mph45.1 kmh 29.69 in1005.4 mb 0.00 in0.0 mm 0.00 in0.0 mm 0.00 in0.0 mm
11:55 AM 54.8°F12.7°C 42.0°F5.6°C 62% 22.0 mph NW35.4 kmh NW 30.0 mph48.3 kmh 29.70 in1005.8 mb 0.00 in0.0 mm 0.00 in0.0 mm 0.00 in0.0 mm
11:50 AM 54.9°F12.7°C 42.1°F5.6°C 62% 21.0 mph NW33.8 kmh NW 30.0 mph48.3 kmh 29.70 in1005.8 mb 0.00 in0.0 mm 0.00 in0.0 mm 0.00 in0.0 mm
11:45 AM 54.8°F12.7°C 42.4°F5.8°C 63% 18.0 mph NW29.0 kmh NW 26.0 mph41.8 kmh 29.70 in1005.8 mb 0.00 in0.0 mm 0.00 in0.0 mm 0.00 in0.0 mm
11:40 AM 54.9°F12.7°C 43.0°F6.1°C 64% 19.0 mph NW30.6 kmh NW 27.0 mph43.5 kmh 29.69 in1005.4 mb 0.00 in0.0 mm 0.00 in0.0 mm 0.00 in0.0 mm
11:35 AM 54.5°F12.5°C 43.0°F6.1°C 65% 24.0 mph NW38.6 kmh NW 33.0 mph53.1 kmh 29.69 in1005.4 mb 0.00 in0.0 mm 0.00 in0.0 mm 0.00 in0.0 mm
11:30 AM 54.6°F12.6°C 42.7°F5.9°C 64% 23.0 mph NW37.0 kmh NW 33.0 mph53.1 kmh 29.69 in1005.4 mb 0.00 in0.0 mm 0.00 in0.0 mm 0.00 in0.0 mm
11:25 AM 54.9°F12.7°C 43.8°F6.6°C 66% 22.0 mph NW35.4 kmh NW 30.0 mph48.3 kmh 29.69 in1005.4 mb 0.00 in0.0 mm 0.00 in0.0 mm 0.00 in0.0 mm
11:20 AM 54.8°F12.7°C 42.9°F6.1°C 64% 21.0 mph NW33.8 kmh NW 29.0 mph46.7 kmh 29.69 in1005.4 mb 0.00 in0.0 mm 0.00 in0.0 mm 0.00 in0.0 mm
11:15 AM 54.8°F12.7°C 42.9°F6.1°C 64% 20.0 mph NW32.2 kmh NW 28.0 mph45.1 kmh 29.69 in1005.4 mb 0.00 in0.0 mm 0.00 in0.0 mm 0.00 in0.0 mm
11:10 AM 54.6°F12.6°C 43.1°F6.2°C 65% 22.0 mph NW35.4 kmh NW 31.0 mph49.9 kmh 29.69 in1005.4 mb 0.00 in0.0 mm 0.00 in0.0 mm 0.00 in0.0 mm
11:05 AM 54.5°F12.5°C 42.6°F5.9°C 64% 24.0 mph NW38.6 kmh NW 32.0 mph51.5 kmh 29.68 in1005.1 mb 0.00 in0.0 mm 0.00 in0.0 mm 0.00 in0.0 mm
11:00 AM 54.7°F12.6°C 44.0°F6.7°C 67% 21.0 mph NW33.8 kmh NW 31.0 mph49.9 kmh 29.68 in1005.1 mb 0.00 in0.0 mm 0.00 in0.0 mm 0.00 in0.0 mm
10:55 AM 54.4°F12.4°C 42.9°F6.1°C 65% 23.0 mph NW37.0 kmh NW 31.0 mph49.9 kmh 29.67 in1004.7 mb 0.00 in0.0 mm 0.00 in0.0 mm 0.00 in0.0 mm
10:50 AM 54.6°F12.6°C 43.9°F6.6°C 67% 19.0 mph NW30.6 kmh NW 30.0 mph48.3 kmh 29.67 in1004.7 mb 0.00 in0.0 mm 0.00 in0.0 mm 0.00 in0.0 mm
10:45 AM 54.6°F12.6°C 42.7°F5.9°C 64% 22.0 mph NW35.4 kmh NW 32.0 mph51.5 kmh 29.67 in1004.7 mb 0.00 in0.0 mm 0.00 in0.0 mm 0.00 in0.0 mm
10:40 AM 54.6°F12.6°C 42.7°F5.9°C 64% 22.0 mph NW35.4 kmh NW 30.0 mph48.3 kmh 29.67 in1004.7 mb 0.00 in0.0 mm 0.00 in0.0 mm 0.00 in0.0 mm
10:35 AM 54.6°F12.6°C 42.7°F5.9°C 64% 22.0 mph WNW35.4 kmh WNW 32.0 mph51.5 kmh 29.67 in1004.7 mb 0.00 in0.0 mm 0.00 in0.0 mm 0.00 in0.0 mm
10:30 AM 54.5°F12.5°C 43.4°F6.3°C 66% 18.0 mph NW29.0 kmh NW 27.0 mph43.5 kmh 29.67 in1004.7 mb 0.00 in0.0 mm 0.00 in0.0 mm 0.00 in0.0 mm
10:25 AM 54.3°F12.4°C 42.8°F6.0°C 65% 18.0 mph NW29.0 kmh NW 28.0 mph45.1 kmh 29.67 in1004.7 mb 0.00 in0.0 mm 0.00 in0.0 mm 0.00 in0.0 mm
10:20 AM 54.2°F12.3°C 42.7°F5.9°C 65% 22.0 mph NW35.4 kmh NW 35.0 mph56.3 kmh 29.67 in1004.7 mb 0.00 in0.0 mm 0.00 in0.0 mm 0.00 in0.0 mm
10:15 AM 54.2°F12.3°C 43.1°F6.2°C 66% 24.0 mph NW38.6 kmh NW 31.0 mph49.9 kmh 29.66 in1004.4 mb 0.00 in0.0 mm 0.00 in0.0 mm 0.00 in0.0 mm
10:10 AM 54.1°F12.3°C 43.8°F6.6°C 68% 21.0 mph NW33.8 kmh NW 27.0 mph43.5 kmh 29.66 in1004.4 mb 0.00 in0.0 mm 0.00 in0.0 mm 0.00 in0.0 mm
10:05 AM 53.9°F12.2°C 43.2°F6.2°C 67% 20.0 mph NW32.2 kmh NW 30.0 mph48.3 kmh 29.66 in1004.4 mb 0.00 in0.0 mm 0.00 in0.0 mm 0.00 in0.0 mm
10:00 AM 53.7°F12.1°C 43.0°F6.1°C 67% 22.0 mph NW35.4 kmh NW 29.0 mph46.7 kmh 29.66 in1004.4 mb 0.00 in0.0 mm 0.00 in0.0 mm 0.00 in0.0 mm
09:55 AM 53.6°F12.0°C 43.3°F6.3°C 68% 19.0 mph NW30.6 kmh NW 28.0 mph45.1 kmh 29.66 in1004.4 mb 0.00 in0.0 mm 0.00 in0.0 mm 0.00 in0.0 mm
09:50 AM 53.5°F11.9°C 43.2°F6.2°C 68% 19.0 mph NW30.6 kmh NW 26.0 mph41.8 kmh 29.65 in1004.1 mb 0.00 in0.0 mm 0.00 in0.0 mm 0.00 in0.0 mm
09:45 AM 53.4°F11.9°C 43.5°F6.4°C 69% 19.0 mph WNW30.6 kmh WNW 27.0 mph43.5 kmh 29.65 in1004.1 mb 0.00 in0.0 mm 0.00 in0.0 mm 0.00 in0.0 mm
09:40 AM 53.4°F11.9°C 43.1°F6.2°C 68% 20.0 mph NW32.2 kmh NW 29.0 mph46.7 kmh 29.65 in1004.1 mb 0.00 in0.0 mm 0.00 in0.0 mm 0.00 in0.0 mm
09:35 AM 53.4°F11.9°C 43.1°F6.2°C 68% 19.0 mph WNW30.6 kmh WNW 27.0 mph43.5 kmh 29.64 in1003.7 mb 0.00 in0.0 mm 0.00 in0.0 mm 0.00 in0.0 mm
09:30 AM 53.3°F11.8°C 43.4°F6.3°C 69% 16.0 mph WNW25.7 kmh WNW 26.0 mph41.8 kmh 29.65 in1004.1 mb 0.00 in0.0 mm 0.00 in0.0 mm 0.00 in0.0 mm
09:25 AM 53.0°F11.7°C 43.5°F6.4°C 70% 16.0 mph WNW25.7 kmh WNW 24.0 mph38.6 kmh 29.64 in1003.7 mb 0.00 in0.0 mm 0.00 in0.0 mm 0.00 in0.0 mm
09:20 AM 52.9°F11.6°C 43.0°F6.1°C 69% 17.0 mph WNW27.4 kmh WNW 22.0 mph35.4 kmh 29.64 in1003.7 mb 0.00 in0.0 mm 0.00 in0.0 mm 0.00 in0.0 mm
09:15 AM 52.7°F11.5°C 43.2°F6.2°C 70% 17.0 mph NW27.4 kmh NW 23.0 mph37.0 kmh 29.64 in1003.7 mb 0.00 in0.0 mm 0.00 in0.0 mm 0.00 in0.0 mm
09:10 AM 52.6°F11.4°C 43.1°F6.2°C 70% 16.0 mph WNW25.7 kmh WNW 25.0 mph40.2 kmh 29.64 in1003.7 mb 0.00 in0.0 mm 0.00 in0.0 mm 0.00 in0.0 mm
09:05 AM 52.6°F11.4°C 43.5°F6.4°C 71% 14.0 mph WNW22.5 kmh WNW 21.0 mph33.8 kmh 29.64 in1003.7 mb 0.00 in0.0 mm 0.00 in0.0 mm 0.00 in0.0 mm
09:00 AM 52.5°F11.4°C 43.4°F6.3°C 71% 12.0 mph WNW19.3 kmh WNW 16.0 mph25.7 kmh 29.64 in1003.7 mb 0.00 in0.0 mm 0.00 in0.0 mm 0.00 in0.0 mm
08:55 AM 52.3°F11.3°C 43.5°F6.4°C 72% 11.0 mph WNW17.7 kmh WNW 18.0 mph29.0 kmh 29.63 in1003.4 mb 0.00 in0.0 mm 0.00 in0.0 mm 0.00 in0.0 mm
08:50 AM 52.1°F11.2°C 43.0°F6.1°C 71% 12.0 mph WNW19.3 kmh WNW 22.0 mph35.4 kmh 29.63 in1003.4 mb 0.00 in0.0 mm 0.00 in0.0 mm 0.00 in0.0 mm
08:45 AM 52.0°F11.1°C 42.9°F6.1°C 71% 10.0 mph WNW16.1 kmh WNW 18.0 mph29.0 kmh 29.63 in1003.4 mb 0.00 in0.0 mm 0.00 in0.0 mm 0.00 in0.0 mm
08:40 AM 51.8°F11.0°C 43.1°F6.2°C 72% 8.0 mph WNW12.9 kmh WNW 15.0 mph24.1 kmh 29.63 in1003.4 mb 0.00 in0.0 mm 0.00 in0.0 mm 0.00 in0.0 mm
08:35 AM 51.6°F10.9°C 42.9°F6.1°C 72% 10.0 mph WNW16.1 kmh WNW 18.0 mph29.0 kmh 29.63 in1003.4 mb 0.00 in0.0 mm 0.00 in0.0 mm 0.00 in0.0 mm
08:30 AM 51.4°F10.8°C 43.0°F6.1°C 73% 10.0 mph WNW16.1 kmh WNW 20.0 mph32.2 kmh 29.63 in1003.4 mb 0.00 in0.0 mm 0.00 in0.0 mm 0.00 in0.0 mm
08:25 AM 51.1°F10.6°C 42.8°F6.0°C 73% 11.0 mph WNW17.7 kmh WNW 20.0 mph32.2 kmh 29.62 in1003.0 mb 0.00 in0.0 mm 0.00 in0.0 mm 0.00 in0.0 mm
08:20 AM 50.7°F10.4°C 42.7°F5.9°C 74% 9.0 mph WNW14.5 kmh WNW 18.0 mph29.0 kmh 29.62 in1003.0 mb 0.00 in0.0 mm 0.00 in0.0 mm 0.00 in0.0 mm
08:15 AM 50.4°F10.2°C 42.4°F5.8°C 74% 7.0 mph WNW11.3 kmh WNW 16.0 mph25.7 kmh 29.62 in1003.0 mb 0.00 in0.0 mm 0.00 in0.0 mm 0.00 in0.0 mm
08:10 AM 50.1°F10.1°C 42.1°F5.6°C 74% 10.0 mph WNW16.1 kmh WNW 18.0 mph29.0 kmh 29.61 in1002.7 mb 0.00 in0.0 mm 0.00 in0.0 mm 0.00 in0.0 mm
08:05 AM 49.9°F9.9°C 42.3°F5.7°C 75% 11.0 mph WNW17.7 kmh WNW 19.0 mph30.6 kmh 29.61 in1002.7 mb 0.00 in0.0 mm 0.00 in0.0 mm 0.00 in0.0 mm
08:00 AM 49.6°F9.8°C 42.3°F5.7°C 76% 8.0 mph WNW12.9 kmh WNW 17.0 mph27.4 kmh 29.60 in1002.4 mb 0.00 in0.0 mm 0.00 in0.0 mm 0.00 in0.0 mm
07:55 AM 49.3°F9.6°C 41.7°F5.4°C 75% 8.0 mph WNW12.9 kmh WNW 15.0 mph24.1 kmh 29.60 in1002.4 mb 0.00 in0.0 mm 0.00 in0.0 mm 0.00 in0.0 mm
07:50 AM 49.1°F9.5°C 41.9°F5.5°C 76% 8.0 mph WNW12.9 kmh WNW 14.0 mph22.5 kmh 29.60 in1002.4 mb 0.00 in0.0 mm 0.00 in0.0 mm 0.00 in0.0 mm
07:45 AM 49.0°F9.4°C 42.1°F5.6°C 77% 10.0 mph WNW16.1 kmh WNW 17.0 mph27.4 kmh 29.59 in1002.0 mb 0.00 in0.0 mm 0.00 in0.0 mm 0.00 in0.0 mm
07:40 AM 48.7°F9.3°C 41.8°F5.4°C 77% 10.0 mph WNW16.1 kmh WNW 17.0 mph27.4 kmh 29.59 in1002.0 mb 0.00 in0.0 mm 0.00 in0.0 mm 0.00 in0.0 mm
07:35 AM 48.4°F9.1°C 41.9°F5.5°C 78% 8.0 mph WNW12.9 kmh WNW 15.0 mph24.1 kmh 29.59 in1002.0 mb 0.00 in0.0 mm 0.00 in0.0 mm 0.00 in0.0 mm
07:30 AM 48.2°F9.0°C 41.7°F5.4°C 78% 8.0 mph WNW12.9 kmh WNW 14.0 mph22.5 kmh 29.59 in1002.0 mb 0.00 in0.0 mm 0.00 in0.0 mm 0.00 in0.0 mm
07:25 AM 48.1°F8.9°C 41.6°F5.3°C 78% 7.0 mph WNW11.3 kmh WNW 13.0 mph20.9 kmh 29.58 in1001.7 mb 0.00 in0.0 mm 0.00 in0.0 mm 0.00 in0.0 mm
07:20 AM 47.9°F8.8°C 41.4°F5.2°C 78% 8.0 mph WNW12.9 kmh WNW 14.0 mph22.5 kmh 29.58 in1001.7 mb 0.00 in0.0 mm 0.00 in0.0 mm 0.00 in0.0 mm
07:15 AM 47.8°F8.8°C 41.3°F5.2°C 78% 9.0 mph W14.5 kmh W 15.0 mph24.1 kmh 29.58 in1001.7 mb 0.00 in0.0 mm 0.00 in0.0 mm 0.00 in0.0 mm
07:10 AM 47.9°F8.8°C 41.7°F5.4°C 79% 7.0 mph W11.3 kmh W 12.0 mph19.3 kmh 29.58 in1001.7 mb 0.00 in0.0 mm 0.00 in0.0 mm 0.00 in0.0 mm
07:05 AM 48.0°F8.9°C 41.8°F5.4°C 79% 8.0 mph WNW12.9 kmh WNW 16.0 mph25.7 kmh 29.57 in1001.4 mb 0.00 in0.0 mm 0.00 in0.0 mm 0.00 in0.0 mm
07:00 AM 48.0°F8.9°C 41.5°F5.3°C 78% 9.0 mph WNW14.5 kmh WNW 16.0 mph25.7 kmh 29.56 in1001.0 mb 0.00 in0.0 mm 0.00 in0.0 mm 0.00 in0.0 mm
06:55 AM 48.2°F9.0°C 41.3°F5.2°C 77% 8.0 mph WNW12.9 kmh WNW 14.0 mph22.5 kmh 29.56 in1001.0 mb 0.00 in0.0 mm 0.00 in0.0 mm 0.00 in0.0 mm
06:50 AM 48.4°F9.1°C 41.2°F5.1°C 76% 6.0 mph WNW9.7 kmh WNW 12.0 mph19.3 kmh 29.57 in1001.4 mb 0.00 in0.0 mm 0.00 in0.0 mm 0.00 in0.0 mm
06:45 AM 48.8°F9.3°C 41.2°F5.1°C 75% 9.0 mph WNW14.5 kmh WNW 14.0 mph22.5 kmh 29.56 in1001.0 mb 0.00 in0.0 mm 0.00 in0.0 mm 0.00 in0.0 mm
06:40 AM 48.9°F9.4°C 41.3°F5.2°C 75% 12.0 mph WNW19.3 kmh WNW 19.0 mph30.6 kmh 29.56 in1001.0 mb 0.00 in0.0 mm 0.00 in0.0 mm 0.00 in0.0 mm
06:35 AM 49.1°F9.5°C 41.5°F5.3°C 75% 13.0 mph WNW20.9 kmh WNW 19.0 mph30.6 kmh 29.56 in1001.0 mb 0.00 in0.0 mm 0.00 in0.0 mm 0.00 in0.0 mm
06:30 AM 49.3°F9.6°C 41.7°F5.4°C 75% 15.0 mph WNW24.1 kmh WNW 22.0 mph35.4 kmh 29.55 in1000.7 mb 0.00 in0.0 mm 0.00 in0.0 mm 0.00 in0.0 mm
06:25 AM 49.4°F9.7°C 42.2°F5.7°C 76% 13.0 mph WNW20.9 kmh WNW 21.0 mph33.8 kmh 29.56 in1001.0 mb 0.00 in0.0 mm 0.00 in0.0 mm 0.00 in0.0 mm
06:20 AM 49.4°F9.7°C 42.2°F5.7°C 76% 14.0 mph NW22.5 kmh NW 19.0 mph30.6 kmh 29.55 in1000.7 mb 0.00 in0.0 mm 0.00 in0.0 mm 0.00 in0.0 mm
06:15 AM 49.3°F9.6°C 42.4°F5.8°C 77% 13.0 mph WNW20.9 kmh WNW 21.0 mph33.8 kmh 29.55 in1000.7 mb 0.00 in0.0 mm 0.00 in0.0 mm 0.00 in0.0 mm
06:10 AM 49.4°F9.7°C 42.2°F5.7°C 76% 13.0 mph WNW20.9 kmh WNW 20.0 mph32.2 kmh 29.55 in1000.7 mb 0.00 in0.0 mm 0.00 in0.0 mm 0.00 in0.0 mm
06:05 AM 49.4°F9.7°C 41.8°F5.4°C 75% 13.0 mph WNW20.9 kmh WNW 22.0 mph35.4 kmh 29.54 in1000.3 mb 0.00 in0.0 mm 0.00 in0.0 mm 0.00 in0.0 mm
06:00 AM 49.6°F9.8°C 42.0°F5.6°C 75% 14.0 mph WNW22.5 kmh WNW 21.0 mph33.8 kmh 29.54 in1000.3 mb 0.00 in0.0 mm 0.00 in0.0 mm 0.00 in0.0 mm
05:55 AM 49.6°F9.8°C 42.0°F5.6°C 75% 16.0 mph WNW25.7 kmh WNW 23.0 mph37.0 kmh 29.53 in1000.0 mb 0.00 in0.0 mm 0.00 in0.0 mm 0.00 in0.0 mm
05:50 AM 49.6°F9.8°C 42.0°F5.6°C 75% 17.0 mph WNW27.4 kmh WNW 26.0 mph41.8 kmh 29.53 in1000.0 mb 0.00 in0.0 mm 0.00 in0.0 mm 0.00 in0.0 mm
05:45 AM 49.5°F9.7°C 41.9°F5.5°C 75% 17.0 mph WNW27.4 kmh WNW 24.0 mph38.6 kmh 29.52 in999.7 mb 0.00 in0.0 mm 0.00 in0.0 mm 0.00 in0.0 mm
05:40 AM 49.5°F9.7°C 41.6°F5.3°C 74% 15.0 mph WNW24.1 kmh WNW 24.0 mph38.6 kmh 29.52 in999.7 mb 0.00 in0.0 mm 0.00 in0.0 mm 0.00 in0.0 mm
05:35 AM 49.7°F9.8°C 42.1°F5.6°C 75% 14.0 mph WNW22.5 kmh WNW 19.0 mph30.6 kmh 29.52 in999.7 mb 0.00 in0.0 mm 0.00 in0.0 mm 0.00 in0.0 mm
05:30 AM 49.7°F9.8°C 42.1°F5.6°C 75% 18.0 mph NW29.0 kmh NW 26.0 mph41.8 kmh 29.52 in999.7 mb 0.00 in0.0 mm 0.00 in0.0 mm 0.00 in0.0 mm
05:25 AM 49.5°F9.7°C 41.9°F5.5°C 75% 18.0 mph NW29.0 kmh NW 25.0 mph40.2 kmh 29.51 in999.3 mb 0.00 in0.0 mm 0.00 in0.0 mm 0.00 in0.0 mm
05:20 AM 49.3°F9.6°C 42.1°F5.6°C 76% 16.0 mph WNW25.7 kmh WNW 25.0 mph40.2 kmh 29.50 in999.0 mb 0.00 in0.0 mm 0.00 in0.0 mm 0.00 in0.0 mm
05:15 AM 49.1°F9.5°C 41.9°F5.5°C 76% 15.0 mph WNW24.1 kmh WNW 21.0 mph33.8 kmh 29.50 in999.0 mb 0.00 in0.0 mm 0.00 in0.0 mm 0.00 in0.0 mm
05:10 AM 49.0°F9.4°C 41.8°F5.4°C 76% 12.0 mph WNW19.3 kmh WNW 17.0 mph27.4 kmh 29.50 in999.0 mb 0.00 in0.0 mm 0.00 in0.0 mm 0.00 in0.0 mm
05:05 AM 49.1°F9.5°C 41.9°F5.5°C 76% 14.0 mph WNW22.5 kmh WNW 19.0 mph30.6 kmh 29.50 in999.0 mb 0.00 in0.0 mm 0.00 in0.0 mm 0.00 in0.0 mm
05:00 AM 49.0°F9.4°C 41.4°F5.2°C 75% 15.0 mph WNW24.1 kmh WNW 23.0 mph37.0 kmh 29.50 in999.0 mb 0.00 in0.0 mm 0.00 in0.0 mm 0.00 in0.0 mm
04:55 AM 48.7°F9.3°C 41.5°F5.3°C 76% 14.0 mph WNW22.5 kmh WNW 22.0 mph35.4 kmh 29.50 in999.0 mb 0.00 in0.0 mm 0.00 in0.0 mm 0.00 in0.0 mm
04:50 AM 48.4°F9.1°C 41.5°F5.3°C 77% 12.0 mph WNW19.3 kmh WNW 18.0 mph29.0 kmh 29.50 in999.0 mb 0.00 in0.0 mm 0.00 in0.0 mm 0.00 in0.0 mm
04:45 AM 48.3°F9.1°C 41.8°F5.4°C 78% 10.0 mph WNW16.1 kmh WNW 17.0 mph27.4 kmh 29.50 in999.0 mb 0.00 in0.0 mm 0.00 in0.0 mm 0.00 in0.0 mm
04:40 AM 48.3°F9.1°C 41.4°F5.2°C 77% 10.0 mph WNW16.1 kmh WNW 15.0 mph24.1 kmh 29.50 in999.0 mb 0.00 in0.0 mm 0.00 in0.0 mm 0.00 in0.0 mm
04:35 AM 48.3°F9.1°C 41.4°F5.2°C 77% 10.0 mph WNW16.1 kmh WNW 15.0 mph24.1 kmh 29.49 in998.6 mb 0.00 in0.0 mm 0.00 in0.0 mm 0.00 in0.0 mm
04:30 AM 48.3°F9.1°C 41.4°F5.2°C 77% 9.0 mph WNW14.5 kmh WNW 15.0 mph24.1 kmh 29.49 in998.6 mb 0.00 in0.0 mm 0.00 in0.0 mm 0.00 in0.0 mm
04:25 AM 48.3°F9.1°C 41.1°F5.1°C 76% 10.0 mph WNW16.1 kmh WNW 17.0 mph27.4 kmh 29.49 in998.6 mb 0.00 in0.0 mm 0.00 in0.0 mm 0.00 in0.0 mm
04:20 AM 48.3°F9.1°C 41.4°F5.2°C 77% 11.0 mph WNW17.7 kmh WNW 16.0 mph25.7 kmh 29.49 in998.6 mb 0.00 in0.0 mm 0.00 in0.0 mm 0.00 in0.0 mm
04:15 AM 48.2°F9.0°C 41.3°F5.2°C 77% 9.0 mph WNW14.5 kmh WNW 14.0 mph22.5 kmh 29.49 in998.6 mb 0.00 in0.0 mm 0.00 in0.0 mm 0.00 in0.0 mm
04:10 AM 48.1°F8.9°C 41.2°F5.1°C 77% 10.0 mph WNW16.1 kmh WNW 14.0 mph22.5 kmh 29.49 in998.6 mb 0.00 in0.0 mm 0.00 in0.0 mm 0.00 in0.0 mm
04:05 AM 48.0°F8.9°C 41.1°F5.1°C 77% 9.0 mph WNW14.5 kmh WNW 14.0 mph22.5 kmh 29.48 in998.3 mb 0.00 in0.0 mm 0.00 in0.0 mm 0.00 in0.0 mm
04:00 AM 48.0°F8.9°C 41.5°F5.3°C 78% 8.0 mph WNW12.9 kmh WNW 14.0 mph22.5 kmh 29.49 in998.6 mb 0.00 in0.0 mm 0.00 in0.0 mm 0.00 in0.0 mm
03:55 AM 48.0°F8.9°C 41.5°F5.3°C 78% 8.0 mph WNW12.9 kmh WNW 14.0 mph22.5 kmh 29.48 in998.3 mb 0.00 in0.0 mm 0.00 in0.0 mm 0.00 in0.0 mm
03:50 AM 48.0°F8.9°C 40.8°F4.9°C 76% 11.0 mph WNW17.7 kmh WNW 17.0 mph27.4 kmh 29.48 in998.3 mb 0.00 in0.0 mm 0.00 in0.0 mm 0.00 in0.0 mm
03:45 AM 48.0°F8.9°C 41.1°F5.1°C 77% 12.0 mph WNW19.3 kmh WNW 18.0 mph29.0 kmh 29.48 in998.3 mb 0.00 in0.0 mm 0.00 in0.0 mm 0.00 in0.0 mm
03:40 AM 47.9°F8.8°C 41.4°F5.2°C 78% 10.0 mph WNW16.1 kmh WNW 17.0 mph27.4 kmh 29.48 in998.3 mb 0.00 in0.0 mm 0.00 in0.0 mm 0.00 in0.0 mm
03:35 AM 47.9°F8.8°C 41.7°F5.4°C 79% 7.0 mph W11.3 kmh W 16.0 mph25.7 kmh 29.48 in998.3 mb 0.00 in0.0 mm 0.00 in0.0 mm 0.00 in0.0 mm
03:30 AM 47.9°F8.8°C 41.0°F5.0°C 77% 8.0 mph W12.9 kmh W 17.0 mph27.4 kmh 29.48 in998.3 mb 0.00 in0.0 mm 0.00 in0.0 mm 0.00 in0.0 mm
03:25 AM 48.0°F8.9°C 41.1°F5.1°C 77% 6.0 mph W9.7 kmh W 14.0 mph22.5 kmh 29.48 in998.3 mb 0.00 in0.0 mm 0.00 in0.0 mm 0.00 in0.0 mm
03:20 AM 48.1°F8.9°C 41.6°F5.3°C 78% 7.0 mph W11.3 kmh W 13.0 mph20.9 kmh 29.48 in998.3 mb 0.00 in0.0 mm 0.00 in0.0 mm 0.00 in0.0 mm
03:15 AM 48.3°F9.1°C 41.8°F5.4°C 78% 6.0 mph W9.7 kmh W 13.0 mph20.9 kmh 29.47 in998.0 mb 0.00 in0.0 mm 0.00 in0.0 mm 0.00 in0.0 mm
03:10 AM 48.3°F9.1°C 41.4°F5.2°C 77% 7.0 mph W11.3 kmh W 13.0 mph20.9 kmh 29.47 in998.0 mb 0.00 in0.0 mm 0.00 in0.0 mm 0.00 in0.0 mm
03:05 AM 48.3°F9.1°C 40.7°F4.8°C 75% 10.0 mph WNW16.1 kmh WNW 17.0 mph27.4 kmh 29.47 in998.0 mb 0.00 in0.0 mm 0.00 in0.0 mm 0.00 in0.0 mm
03:00 AM 48.3°F9.1°C 41.1°F5.1°C 76% 8.0 mph W12.9 kmh W 17.0 mph27.4 kmh 29.47 in998.0 mb 0.00 in0.0 mm 0.00 in0.0 mm 0.00 in0.0 mm
02:55 AM 48.5°F9.2°C 40.9°F4.9°C 75% 9.0 mph W14.5 kmh W 14.0 mph22.5 kmh 29.47 in998.0 mb 0.00 in0.0 mm 0.00 in0.0 mm 0.00 in0.0 mm
02:50 AM 48.5°F9.2°C 40.9°F4.9°C 75% 5.0 mph W8.0 kmh W 11.0 mph17.7 kmh 29.46 in997.6 mb 0.00 in0.0 mm 0.00 in0.0 mm 0.00 in0.0 mm
02:45 AM 48.5°F9.2°C 41.3°F5.2°C 76% 5.0 mph W8.0 kmh W 12.0 mph19.3 kmh 29.46 in997.6 mb 0.00 in0.0 mm 0.00 in0.0 mm 0.00 in0.0 mm
02:40 AM 48.6°F9.2°C 41.0°F5.0°C 75% 6.0 mph W9.7 kmh W 15.0 mph24.1 kmh 29.46 in997.6 mb 0.00 in0.0 mm 0.00 in0.0 mm 0.00 in0.0 mm
02:35 AM 48.6°F9.2°C 41.4°F5.2°C 76% 8.0 mph WNW12.9 kmh WNW 15.0 mph24.1 kmh 29.45 in997.3 mb 0.00 in0.0 mm 0.00 in0.0 mm 0.00 in0.0 mm
02:30 AM 48.7°F9.3°C 40.4°F4.7°C 73% 10.0 mph WNW16.1 kmh WNW 15.0 mph24.1 kmh 29.45 in997.3 mb 0.00 in0.0 mm 0.00 in0.0 mm 0.00 in0.0 mm
02:25 AM 48.8°F9.3°C 41.2°F5.1°C 75% 9.0 mph W14.5 kmh W 17.0 mph27.4 kmh 29.45 in997.3 mb 0.00 in0.0 mm 0.00 in0.0 mm 0.00 in0.0 mm
02:20 AM 48.9°F9.4°C 41.0°F5.0°C 74% 12.0 mph WNW19.3 kmh WNW 18.0 mph29.0 kmh 29.45 in997.3 mb 0.00 in0.0 mm 0.00 in0.0 mm 0.00 in0.0 mm
02:15 AM 48.9°F9.4°C 40.6°F4.8°C 73% 11.0 mph WNW17.7 kmh WNW 20.0 mph32.2 kmh 29.45 in997.3 mb 0.00 in0.0 mm 0.00 in0.0 mm 0.00 in0.0 mm
02:10 AM 48.9°F9.4°C 40.6°F4.8°C 73% 13.0 mph WNW20.9 kmh WNW 23.0 mph37.0 kmh 29.45 in997.3 mb 0.00 in0.0 mm 0.00 in0.0 mm 0.00 in0.0 mm
02:05 AM 49.0°F9.4°C 40.7°F4.8°C 73% 13.0 mph WNW20.9 kmh WNW 20.0 mph32.2 kmh 29.44 in997.0 mb 0.00 in0.0 mm 0.00 in0.0 mm 0.00 in0.0 mm
02:00 AM 49.1°F9.5°C 40.5°F4.7°C 72% 15.0 mph WNW24.1 kmh WNW 21.0 mph33.8 kmh 29.44 in997.0 mb 0.00 in0.0 mm 0.00 in0.0 mm 0.00 in0.0 mm
01:55 AM 49.0°F9.4°C 40.7°F4.8°C 73% 14.0 mph WNW22.5 kmh WNW 22.0 mph35.4 kmh 29.44 in997.0 mb 0.00 in0.0 mm 0.00 in0.0 mm 0.00 in0.0 mm
01:50 AM 48.9°F9.4°C 40.6°F4.8°C 73% 11.0 mph WNW17.7 kmh WNW 22.0 mph35.4 kmh 29.44 in997.0 mb 0.00 in0.0 mm 0.00 in0.0 mm 0.00 in0.0 mm
01:45 AM 49.0°F9.4°C 40.4°F4.7°C 72% 10.0 mph WNW16.1 kmh WNW 18.0 mph29.0 kmh 29.44 in997.0 mb 0.00 in0.0 mm 0.00 in0.0 mm 0.00 in0.0 mm
01:40 AM 49.1°F9.5°C 40.8°F4.9°C 73% 11.0 mph WNW17.7 kmh WNW 18.0 mph29.0 kmh 29.43 in996.6 mb 0.00 in0.0 mm 0.00 in0.0 mm 0.00 in0.0 mm
01:35 AM 49.1°F9.5°C 40.8°F4.9°C 73% 13.0 mph WNW20.9 kmh WNW 19.0 mph30.6 kmh 29.43 in996.6 mb 0.00 in0.0 mm 0.00 in0.0 mm 0.00 in0.0 mm
01:30 AM 49.1°F9.5°C 40.5°F4.7°C 72% 13.0 mph WNW20.9 kmh WNW 21.0 mph33.8 kmh 29.43 in996.6 mb 0.00 in0.0 mm 0.00 in0.0 mm 0.00 in0.0 mm
01:25 AM 49.2°F9.6°C 40.9°F4.9°C 73% 14.0 mph WNW22.5 kmh WNW 24.0 mph38.6 kmh 29.43 in996.6 mb 0.00 in0.0 mm 0.00 in0.0 mm 0.00 in0.0 mm
01:20 AM 49.3°F9.6°C 40.7°F4.8°C 72% 12.0 mph WNW19.3 kmh WNW 24.0 mph38.6 kmh 29.42 in996.3 mb 0.00 in0.0 mm 0.00 in0.0 mm 0.00 in0.0 mm
01:15 AM 49.3°F9.6°C 41.0°F5.0°C 73% 15.0 mph WNW24.1 kmh WNW 23.0 mph37.0 kmh 29.42 in996.3 mb 0.00 in0.0 mm 0.00 in0.0 mm 0.00 in0.0 mm
01:10 AM 49.3°F9.6°C 41.0°F5.0°C 73% 11.0 mph WNW17.7 kmh WNW 21.0 mph33.8 kmh 29.42 in996.3 mb 0.00 in0.0 mm 0.00 in0.0 mm 0.00 in0.0 mm
01:05 AM 49.3°F9.6°C 40.7°F4.8°C 72% 15.0 mph WNW24.1 kmh WNW 21.0 mph33.8 kmh 29.41 in995.9 mb 0.00 in0.0 mm 0.00 in0.0 mm 0.00 in0.0 mm
01:00 AM 49.4°F9.7°C 40.8°F4.9°C 72% 14.0 mph WNW22.5 kmh WNW 22.0 mph35.4 kmh 29.40 in995.6 mb 0.00 in0.0 mm 0.00 in0.0 mm 0.00 in0.0 mm
12:55 AM 49.5°F9.7°C 41.2°F5.1°C 73% 15.0 mph WNW24.1 kmh WNW 25.0 mph40.2 kmh 29.40 in995.6 mb 0.00 in0.0 mm 0.00 in0.0 mm 0.00 in0.0 mm
12:50 AM 49.4°F9.7°C 41.1°F5.1°C 73% 14.0 mph WNW22.5 kmh WNW 23.0 mph37.0 kmh 29.40 in995.6 mb 0.00 in0.0 mm 0.00 in0.0 mm 0.00 in0.0 mm
12:45 AM 49.4°F9.7°C 41.1°F5.1°C 73% 14.0 mph WNW22.5 kmh WNW 20.0 mph32.2 kmh 29.40 in995.6 mb 0.00 in0.0 mm 0.00 in0.0 mm 0.00 in0.0 mm
12:40 AM 49.3°F9.6°C 41.4°F5.2°C 74% 11.0 mph WNW17.7 kmh WNW 19.0 mph30.6 kmh 29.40 in995.6 mb 0.00 in0.0 mm 0.00 in0.0 mm 0.00 in0.0 mm
12:35 AM 49.3°F9.6°C 41.0°F5.0°C 73% 10.0 mph WNW16.1 kmh WNW 17.0 mph27.4 kmh 29.40 in995.6 mb 0.00 in0.0 mm 0.00 in0.0 mm 0.00 in0.0 mm
12:30 AM 49.4°F9.7°C 41.5°F5.3°C 74% 12.0 mph WNW19.3 kmh WNW 17.0 mph27.4 kmh 29.39 in995.3 mb 0.00 in0.0 mm 0.00 in0.0 mm 0.00 in0.0 mm
12:25 AM 49.5°F9.7°C 41.2°F5.1°C 73% 11.0 mph WNW17.7 kmh WNW 18.0 mph29.0 kmh 29.39 in995.3 mb 0.00 in0.0 mm 0.00 in0.0 mm 0.00 in0.0 mm
12:20 AM 49.5°F9.7°C 41.2°F5.1°C 73% 13.0 mph WNW20.9 kmh WNW 23.0 mph37.0 kmh 29.38 in994.9 mb 0.00 in0.0 mm 0.00 in0.0 mm 0.00 in0.0 mm
12:15 AM 49.6°F9.8°C 41.7°F5.4°C 74% 11.0 mph WNW17.7 kmh WNW 22.0 mph35.4 kmh 29.38 in994.9 mb 0.00 in0.0 mm 0.00 in0.0 mm 0.00 in0.0 mm
12:10 AM 49.6°F9.8°C 41.7°F5.4°C 74% 10.0 mph WNW16.1 kmh WNW 18.0 mph29.0 kmh 29.38 in994.9 mb 0.00 in0.0 mm 0.00 in0.0 mm 0.00 in0.0 mm
12:05 AM 49.6°F9.8°C 41.3°F5.2°C 73% 12.0 mph WNW19.3 kmh WNW 21.0 mph33.8 kmh 29.38 in994.9 mb 0.00 in0.0 mm 0.00 in0.0 mm 0.00 in0.0 mm
12:00 AM 49.7°F9.8°C 41.0°F5.0°C 72% 12.0 mph WNW19.3 kmh WNW 22.0 mph35.4 kmh 29.38 in994.9 mb 0.00 in0.0 mm 0.00 in0.0 mm 0.00 in0.0 mm